sensor_id;sensor_type;location;lat;lon;timestamp;P1;durP1;ratioP1;P2;durP2;ratioP2
54139;SDS011;40046;53.254;5.900;2023-06-19T00:01:53;9.85;;;8.32;;
54139;SDS011;40046;53.254;5.900;2023-06-19T00:04:19;9.02;;;7.93;;
54139;SDS011;40046;53.254;5.900;2023-06-19T00:06:45;9.15;;;8.00;;
54139;SDS011;40046;53.254;5.900;2023-06-19T00:09:11;8.57;;;7.68;;
54139;SDS011;40046;53.254;5.900;2023-06-19T00:11:38;8.93;;;8.02;;
54139;SDS011;40046;53.254;5.900;2023-06-19T00:14:04;10.18;;;7.45;;
54139;SDS011;40046;53.254;5.900;2023-06-19T00:16:31;8.30;;;7.30;;
54139;SDS011;40046;53.254;5.900;2023-06-19T00:18:57;9.35;;;7.78;;
54139;SDS011;40046;53.254;5.900;2023-06-19T00:21:24;13.75;;;8.30;;
54139;SDS011;40046;53.254;5.900;2023-06-19T00:23:51;8.98;;;8.07;;
54139;SDS011;40046;53.254;5.900;2023-06-19T00:26:18;8.68;;;7.70;;
54139;SDS011;40046;53.254;5.900;2023-06-19T00:28:51;8.02;;;7.22;;
54139;SDS011;40046;53.254;5.900;2023-06-19T00:31:17;8.73;;;7.90;;
54139;SDS011;40046;53.254;5.900;2023-06-19T00:33:44;9.25;;;8.35;;
54139;SDS011;40046;53.254;5.900;2023-06-19T00:36:13;8.70;;;7.90;;
54139;SDS011;40046;53.254;5.900;2023-06-19T00:38:40;11.40;;;7.90;;
54139;SDS011;40046;53.254;5.900;2023-06-19T00:41:06;9.45;;;7.75;;
54139;SDS011;40046;53.254;5.900;2023-06-19T00:43:32;10.10;;;7.90;;
54139;SDS011;40046;53.254;5.900;2023-06-19T00:45:59;8.18;;;7.38;;
54139;SDS011;40046;53.254;5.900;2023-06-19T00:48:26;9.95;;;7.70;;
54139;SDS011;40046;53.254;5.900;2023-06-19T00:50:53;9.50;;;7.03;;
54139;SDS011;40046;53.254;5.900;2023-06-19T00:53:19;9.48;;;7.50;;
54139;SDS011;40046;53.254;5.900;2023-06-19T00:55:46;9.05;;;8.13;;
54139;SDS011;40046;53.254;5.900;2023-06-19T00:58:13;9.45;;;7.65;;
54139;SDS011;40046;53.254;5.900;2023-06-19T01:00:39;8.00;;;7.20;;
54139;SDS011;40046;53.254;5.900;2023-06-19T01:03:06;8.00;;;6.95;;
54139;SDS011;40046;53.254;5.900;2023-06-19T01:05:33;9.85;;;7.45;;
54139;SDS011;40046;53.254;5.900;2023-06-19T01:08:00;10.70;;;7.57;;
54139;SDS011;40046;53.254;5.900;2023-06-19T01:10:31;7.63;;;6.78;;
54139;SDS011;40046;53.254;5.900;2023-06-19T01:13:01;8.88;;;7.22;;
54139;SDS011;40046;53.254;5.900;2023-06-19T01:15:27;8.90;;;7.95;;
54139;SDS011;40046;53.254;5.900;2023-06-19T01:17:55;8.77;;;7.88;;
54139;SDS011;40046;53.254;5.900;2023-06-19T01:20:22;7.80;;;7.05;;
54139;SDS011;40046;53.254;5.900;2023-06-19T01:22:49;8.32;;;7.40;;
54139;SDS011;40046;53.254;5.900;2023-06-19T01:25:15;8.80;;;7.90;;
54139;SDS011;40046;53.254;5.900;2023-06-19T01:27:42;9.80;;;7.88;;
54139;SDS011;40046;53.254;5.900;2023-06-19T01:30:09;8.50;;;7.65;;
54139;SDS011;40046;53.254;5.900;2023-06-19T01:35:21;8.85;;;7.95;;
54139;SDS011;40046;53.254;5.900;2023-06-19T01:37:49;7.97;;;7.25;;
54139;SDS011;40046;53.254;5.900;2023-06-19T01:40:18;11.90;;;7.57;;
54139;SDS011;40046;53.254;5.900;2023-06-19T01:42:49;9.40;;;7.57;;
54139;SDS011;40046;53.254;5.900;2023-06-19T01:45:17;10.60;;;7.50;;
54139;SDS011;40046;53.254;5.900;2023-06-19T01:47:43;9.77;;;8.40;;
54139;SDS011;40046;53.254;5.900;2023-06-19T01:50:10;8.73;;;7.28;;
54139;SDS011;40046;53.254;5.900;2023-06-19T01:52:37;9.50;;;7.55;;
54139;SDS011;40046;53.254;5.900;2023-06-19T01:55:04;8.55;;;7.60;;
54139;SDS011;40046;53.254;5.900;2023-06-19T01:57:31;10.13;;;7.97;;
54139;SDS011;40046;53.254;5.900;2023-06-19T01:59:57;11.57;;;8.68;;
54139;SDS011;40046;53.254;5.900;2023-06-19T02:02:23;7.38;;;6.68;;
54139;SDS011;40046;53.254;5.900;2023-06-19T02:04:50;8.50;;;7.43;;
54139;SDS011;40046;53.254;5.900;2023-06-19T02:07:16;8.57;;;7.68;;
54139;SDS011;40046;53.254;5.900;2023-06-19T02:09:42;9.05;;;7.75;;
54139;SDS011;40046;53.254;5.900;2023-06-19T02:12:08;9.50;;;7.32;;
54139;SDS011;40046;53.254;5.900;2023-06-19T02:14:35;8.52;;;7.50;;
54139;SDS011;40046;53.254;5.900;2023-06-19T02:17:01;9.80;;;6.78;;
54139;SDS011;40046;53.254;5.900;2023-06-19T02:19:27;10.00;;;7.88;;
54139;SDS011;40046;53.254;5.900;2023-06-19T02:21:53;10.75;;;7.38;;
54139;SDS011;40046;53.254;5.900;2023-06-19T02:24:19;8.55;;;7.55;;
54139;SDS011;40046;53.254;5.900;2023-06-19T02:26:45;8.18;;;6.68;;
54139;SDS011;40046;53.254;5.900;2023-06-19T02:29:12;10.82;;;6.60;;
54139;SDS011;40046;53.254;5.900;2023-06-19T02:31:38;10.57;;;7.32;;
54139;SDS011;40046;53.254;5.900;2023-06-19T02:34:05;11.85;;;7.35;;
54139;SDS011;40046;53.254;5.900;2023-06-19T02:36:31;7.68;;;6.78;;
54139;SDS011;40046;53.254;5.900;2023-06-19T02:38:57;8.45;;;7.18;;
54139;SDS011;40046;53.254;5.900;2023-06-19T02:41:25;7.95;;;7.15;;
54139;SDS011;40046;53.254;5.900;2023-06-19T02:43:52;8.02;;;7.15;;
54139;SDS011;40046;53.254;5.900;2023-06-19T02:46:18;9.60;;;7.80;;
54139;SDS011;40046;53.254;5.900;2023-06-19T02:48:44;11.98;;;8.35;;
54139;SDS011;40046;53.254;5.900;2023-06-19T02:51:11;9.73;;;7.90;;
54139;SDS011;40046;53.254;5.900;2023-06-19T02:53:37;9.48;;;7.70;;
54139;SDS011;40046;53.254;5.900;2023-06-19T02:56:03;9.98;;;7.05;;
54139;SDS011;40046;53.254;5.900;2023-06-19T02:58:30;8.73;;;6.70;;
54139;SDS011;40046;53.254;5.900;2023-06-19T03:00:56;9.65;;;7.20;;
54139;SDS011;40046;53.254;5.900;2023-06-19T03:03:23;9.35;;;8.00;;
54139;SDS011;40046;53.254;5.900;2023-06-19T03:05:49;8.77;;;7.13;;
54139;SDS011;40046;53.254;5.900;2023-06-19T03:08:15;9.07;;;7.35;;
54139;SDS011;40046;53.254;5.900;2023-06-19T03:10:42;12.07;;;7.88;;
54139;SDS011;40046;53.254;5.900;2023-06-19T03:13:08;9.35;;;8.00;;
54139;SDS011;40046;53.254;5.900;2023-06-19T03:15:35;9.50;;;7.53;;
54139;SDS011;40046;53.254;5.900;2023-06-19T03:18:01;8.82;;;7.90;;
54139;SDS011;40046;53.254;5.900;2023-06-19T03:20:33;10.73;;;8.38;;
54139;SDS011;40046;53.254;5.900;2023-06-19T03:23:00;8.18;;;7.35;;
54139;SDS011;40046;53.254;5.900;2023-06-19T03:25:27;10.13;;;8.45;;
54139;SDS011;40046;53.254;5.900;2023-06-19T03:28:01;10.27;;;7.82;;
54139;SDS011;40046;53.254;5.900;2023-06-19T03:30:31;11.18;;;8.05;;
54139;SDS011;40046;53.254;5.900;2023-06-19T03:32:58;11.77;;;7.93;;
54139;SDS011;40046;53.254;5.900;2023-06-19T03:35:41;10.65;;;7.70;;
54139;SDS011;40046;53.254;5.900;2023-06-19T03:38:09;9.93;;;8.25;;
54139;SDS011;40046;53.254;5.900;2023-06-19T03:40:36;8.85;;;7.95;;
54139;SDS011;40046;53.254;5.900;2023-06-19T03:43:07;8.70;;;7.05;;
54139;SDS011;40046;53.254;5.900;2023-06-19T03:45:35;10.93;;;7.80;;
54139;SDS011;40046;53.254;5.900;2023-06-19T03:48:01;9.32;;;8.40;;
54139;SDS011;40046;53.254;5.900;2023-06-19T03:50:27;10.05;;;8.27;;
54139;SDS011;40046;53.254;5.900;2023-06-19T03:52:53;9.07;;;7.55;;
54139;SDS011;40046;53.254;5.900;2023-06-19T03:55:19;10.57;;;7.32;;
54139;SDS011;40046;53.254;5.900;2023-06-19T03:57:46;9.07;;;6.90;;
54139;SDS011;40046;53.254;5.900;2023-06-19T04:00:13;7.28;;;5.95;;
54139;SDS011;40046;53.254;5.900;2023-06-19T04:02:40;8.68;;;5.95;;
54139;SDS011;40046;53.254;5.900;2023-06-19T04:05:06;8.48;;;5.75;;
54139;SDS011;40046;53.254;5.900;2023-06-19T04:07:32;10.10;;;5.78;;
54139;SDS011;40046;53.254;5.900;2023-06-19T04:09:58;6.38;;;4.70;;
54139;SDS011;40046;53.254;5.900;2023-06-19T04:12:25;8.05;;;4.55;;
54139;SDS011;40046;53.254;5.900;2023-06-19T04:14:52;7.18;;;4.53;;
54139;SDS011;40046;53.254;5.900;2023-06-19T04:17:19;5.50;;;3.83;;
54139;SDS011;40046;53.254;5.900;2023-06-19T04:19:45;4.88;;;3.47;;
54139;SDS011;40046;53.254;5.900;2023-06-19T04:22:11;4.45;;;3.42;;
54139;SDS011;40046;53.254;5.900;2023-06-19T04:24:37;8.20;;;3.60;;
54139;SDS011;40046;53.254;5.900;2023-06-19T04:27:03;5.05;;;4.20;;
54139;SDS011;40046;53.254;5.900;2023-06-19T04:29:30;7.13;;;3.45;;
54139;SDS011;40046;53.254;5.900;2023-06-19T04:31:59;5.95;;;3.08;;
54139;SDS011;40046;53.254;5.900;2023-06-19T04:34:28;5.25;;;3.17;;
54139;SDS011;40046;53.254;5.900;2023-06-19T04:36:54;6.10;;;3.22;;
54139;SDS011;40046;53.254;5.900;2023-06-19T04:39:25;4.95;;;2.50;;
54139;SDS011;40046;53.254;5.900;2023-06-19T04:42:01;5.10;;;3.30;;
54139;SDS011;40046;53.254;5.900;2023-06-19T04:44:27;8.63;;;3.53;;
54139;SDS011;40046;53.254;5.900;2023-06-19T04:46:55;5.03;;;3.60;;
54139;SDS011;40046;53.254;5.900;2023-06-19T04:49:29;6.95;;;3.58;;
54139;SDS011;40046;53.254;5.900;2023-06-19T04:51:56;5.05;;;3.25;;
54139;SDS011;40046;53.254;5.900;2023-06-19T04:54:22;7.65;;;3.33;;
54139;SDS011;40046;53.254;5.900;2023-06-19T04:56:48;5.75;;;3.72;;
54139;SDS011;40046;53.254;5.900;2023-06-19T04:59:15;6.07;;;3.15;;
54139;SDS011;40046;53.254;5.900;2023-06-19T05:01:43;3.55;;;2.55;;
54139;SDS011;40046;53.254;5.900;2023-06-19T05:04:09;5.93;;;3.28;;
54139;SDS011;40046;53.254;5.900;2023-06-19T05:06:38;4.32;;;3.33;;
54139;SDS011;40046;53.254;5.900;2023-06-19T05:09:05;6.93;;;3.88;;
54139;SDS011;40046;53.254;5.900;2023-06-19T05:11:31;8.57;;;3.65;;
54139;SDS011;40046;53.254;5.900;2023-06-19T05:13:58;5.70;;;3.50;;
54139;SDS011;40046;53.254;5.900;2023-06-19T05:16:24;8.65;;;3.92;;
54139;SDS011;40046;53.254;5.900;2023-06-19T05:18:50;9.95;;;3.40;;
54139;SDS011;40046;53.254;5.900;2023-06-19T05:21:16;5.95;;;4.25;;
54139;SDS011;40046;53.254;5.900;2023-06-19T05:23:43;8.13;;;4.25;;
54139;SDS011;40046;53.254;5.900;2023-06-19T05:26:09;6.82;;;4.57;;
54139;SDS011;40046;53.254;5.900;2023-06-19T05:28:35;6.35;;;5.00;;
54139;SDS011;40046;53.254;5.900;2023-06-19T05:31:01;7.38;;;5.57;;
54139;SDS011;40046;53.254;5.900;2023-06-19T05:33:29;8.48;;;6.57;;
54139;SDS011;40046;53.254;5.900;2023-06-19T05:35:56;9.35;;;8.18;;
54139;SDS011;40046;53.254;5.900;2023-06-19T05:38:22;12.77;;;10.43;;
54139;SDS011;40046;53.254;5.900;2023-06-19T05:40:51;14.57;;;11.43;;
54139;SDS011;40046;53.254;5.900;2023-06-19T05:43:17;14.95;;;10.52;;
54139;SDS011;40046;53.254;5.900;2023-06-19T05:45:47;14.10;;;12.07;;
54139;SDS011;40046;53.254;5.900;2023-06-19T05:48:13;17.98;;;16.27;;
54139;SDS011;40046;53.254;5.900;2023-06-19T05:50:39;18.13;;;16.20;;
54139;SDS011;40046;53.254;5.900;2023-06-19T05:53:05;21.02;;;17.45;;
54139;SDS011;40046;53.254;5.900;2023-06-19T05:55:32;22.55;;;18.67;;
54139;SDS011;40046;53.254;5.900;2023-06-19T05:57:58;23.67;;;21.48;;
54139;SDS011;40046;53.254;5.900;2023-06-19T06:00:24;26.75;;;21.90;;
54139;SDS011;40046;53.254;5.900;2023-06-19T06:02:50;27.63;;;24.98;;
54139;SDS011;40046;53.254;5.900;2023-06-19T06:05:17;27.58;;;24.65;;
54139;SDS011;40046;53.254;5.900;2023-06-19T06:07:45;31.02;;;28.10;;
54139;SDS011;40046;53.254;5.900;2023-06-19T06:10:12;31.73;;;28.77;;
54139;SDS011;40046;53.254;5.900;2023-06-19T06:12:39;29.20;;;26.40;;
54139;SDS011;40046;53.254;5.900;2023-06-19T06:15:05;29.60;;;26.67;;
54139;SDS011;40046;53.254;5.900;2023-06-19T06:17:31;27.50;;;24.73;;
54139;SDS011;40046;53.254;5.900;2023-06-19T06:19:57;29.95;;;25.98;;
54139;SDS011;40046;53.254;5.900;2023-06-19T06:22:24;28.95;;;26.00;;
54139;SDS011;40046;53.254;5.900;2023-06-19T06:24:50;30.30;;;27.38;;
54139;SDS011;40046;53.254;5.900;2023-06-19T06:27:16;29.98;;;26.85;;
54139;SDS011;40046;53.254;5.900;2023-06-19T06:29:42;31.70;;;28.70;;
54139;SDS011;40046;53.254;5.900;2023-06-19T06:32:09;30.80;;;27.35;;
54139;SDS011;40046;53.254;5.900;2023-06-19T06:34:35;30.45;;;27.33;;
54139;SDS011;40046;53.254;5.900;2023-06-19T06:37:01;31.77;;;28.42;;
54139;SDS011;40046;53.254;5.900;2023-06-19T06:39:28;31.98;;;28.45;;
54139;SDS011;40046;53.254;5.900;2023-06-19T06:41:54;32.45;;;29.25;;
54139;SDS011;40046;53.254;5.900;2023-06-19T06:44:21;29.98;;;27.05;;
54139;SDS011;40046;53.254;5.900;2023-06-19T06:46:48;31.10;;;28.02;;
54139;SDS011;40046;53.254;5.900;2023-06-19T06:49:14;30.95;;;27.40;;
54139;SDS011;40046;53.254;5.900;2023-06-19T06:51:42;32.42;;;29.02;;
54139;SDS011;40046;53.254;5.900;2023-06-19T06:54:08;31.83;;;28.35;;
54139;SDS011;40046;53.254;5.900;2023-06-19T06:56:35;33.45;;;29.23;;
54139;SDS011;40046;53.254;5.900;2023-06-19T06:59:01;36.17;;;28.75;;
54139;SDS011;40046;53.254;5.900;2023-06-19T07:01:27;32.95;;;29.38;;
54139;SDS011;40046;53.254;5.900;2023-06-19T07:03:53;33.67;;;28.00;;
54139;SDS011;40046;53.254;5.900;2023-06-19T07:06:19;34.10;;;26.90;;
54139;SDS011;40046;53.254;5.900;2023-06-19T07:08:46;29.67;;;24.38;;
54139;SDS011;40046;53.254;5.900;2023-06-19T07:11:13;30.60;;;25.20;;
54139;SDS011;40046;53.254;5.900;2023-06-19T07:13:39;29.85;;;26.58;;
54139;SDS011;40046;53.254;5.900;2023-06-19T07:16:06;32.47;;;26.73;;
54139;SDS011;40046;53.254;5.900;2023-06-19T07:18:33;37.88;;;26.33;;
54139;SDS011;40046;53.254;5.900;2023-06-19T07:21:02;34.58;;;27.27;;
54139;SDS011;40046;53.254;5.900;2023-06-19T07:23:30;29.67;;;25.67;;
54139;SDS011;40046;53.254;5.900;2023-06-19T07:25:56;28.17;;;24.88;;
54139;SDS011;40046;53.254;5.900;2023-06-19T07:28:22;28.40;;;23.80;;
54139;SDS011;40046;53.254;5.900;2023-06-19T07:30:49;34.50;;;24.80;;
54139;SDS011;40046;53.254;5.900;2023-06-19T07:33:17;29.27;;;24.30;;
54139;SDS011;40046;53.254;5.900;2023-06-19T07:35:43;33.00;;;24.17;;
54139;SDS011;40046;53.254;5.900;2023-06-19T07:38:09;34.42;;;25.40;;
54139;SDS011;40046;53.254;5.900;2023-06-19T07:40:35;30.55;;;24.58;;
54139;SDS011;40046;53.254;5.900;2023-06-19T07:43:02;33.08;;;25.38;;
54139;SDS011;40046;53.254;5.900;2023-06-19T07:45:28;34.17;;;27.05;;
54139;SDS011;40046;53.254;5.900;2023-06-19T07:47:54;34.70;;;25.88;;
54139;SDS011;40046;53.254;5.900;2023-06-19T07:50:21;27.88;;;23.17;;
54139;SDS011;40046;53.254;5.900;2023-06-19T07:52:47;30.30;;;24.83;;
54139;SDS011;40046;53.254;5.900;2023-06-19T07:55:13;32.85;;;24.52;;
54139;SDS011;40046;53.254;5.900;2023-06-19T07:57:39;27.33;;;23.02;;
54139;SDS011;40046;53.254;5.900;2023-06-19T08:00:06;26.70;;;22.10;;
54139;SDS011;40046;53.254;5.900;2023-06-19T08:02:41;26.75;;;20.88;;
54139;SDS011;40046;53.254;5.900;2023-06-19T08:05:08;26.23;;;20.65;;
54139;SDS011;40046;53.254;5.900;2023-06-19T08:07:34;22.83;;;19.30;;
54139;SDS011;40046;53.254;5.900;2023-06-19T08:10:01;22.45;;;18.00;;
54139;SDS011;40046;53.254;5.900;2023-06-19T08:12:29;22.88;;;17.60;;
54139;SDS011;40046;53.254;5.900;2023-06-19T08:14:55;21.58;;;17.02;;
54139;SDS011;40046;53.254;5.900;2023-06-19T08:17:21;18.90;;;16.15;;
54139;SDS011;40046;53.254;5.900;2023-06-19T08:19:49;18.75;;;16.10;;
54139;SDS011;40046;53.254;5.900;2023-06-19T08:22:15;18.17;;;15.02;;
54139;SDS011;40046;53.254;5.900;2023-06-19T08:24:41;19.42;;;15.80;;
54139;SDS011;40046;53.254;5.900;2023-06-19T08:27:08;16.65;;;14.85;;
54139;SDS011;40046;53.254;5.900;2023-06-19T08:29:34;19.02;;;15.95;;
54139;SDS011;40046;53.254;5.900;2023-06-19T08:32:00;17.13;;;15.43;;
54139;SDS011;40046;53.254;5.900;2023-06-19T08:34:27;18.60;;;15.88;;
54139;SDS011;40046;53.254;5.900;2023-06-19T08:36:53;19.90;;;16.42;;
54139;SDS011;40046;53.254;5.900;2023-06-19T08:39:19;22.13;;;17.35;;
54139;SDS011;40046;53.254;5.900;2023-06-19T08:41:47;18.83;;;16.92;;
54139;SDS011;40046;53.254;5.900;2023-06-19T08:44:13;17.48;;;15.52;;
54139;SDS011;40046;53.254;5.900;2023-06-19T08:46:40;20.23;;;16.40;;
54139;SDS011;40046;53.254;5.900;2023-06-19T08:49:07;18.95;;;16.80;;
54139;SDS011;40046;53.254;5.900;2023-06-19T08:51:35;19.67;;;16.00;;
54139;SDS011;40046;53.254;5.900;2023-06-19T08:54:04;18.58;;;15.27;;
54139;SDS011;40046;53.254;5.900;2023-06-19T08:56:31;21.23;;;15.38;;
54139;SDS011;40046;53.254;5.900;2023-06-19T09:01:35;17.40;;;13.75;;
54139;SDS011;40046;53.254;5.900;2023-06-19T09:04:11;19.70;;;14.18;;
54139;SDS011;40046;53.254;5.900;2023-06-19T09:06:54;16.75;;;13.15;;
54139;SDS011;40046;53.254;5.900;2023-06-19T09:09:22;23.50;;;14.57;;
54139;SDS011;40046;53.254;5.900;2023-06-19T09:12:00;19.67;;;13.32;;
54139;SDS011;40046;53.254;5.900;2023-06-19T09:14:34;16.23;;;13.35;;
54139;SDS011;40046;53.254;5.900;2023-06-19T09:17:01;16.25;;;13.18;;
54139;SDS011;40046;53.254;5.900;2023-06-19T09:19:27;15.85;;;12.50;;
54139;SDS011;40046;53.254;5.900;2023-06-19T09:21:58;14.85;;;12.77;;
54139;SDS011;40046;53.254;5.900;2023-06-19T09:24:32;19.52;;;13.80;;
54139;SDS011;40046;53.254;5.900;2023-06-19T09:27:12;13.68;;;12.25;;
54139;SDS011;40046;53.254;5.900;2023-06-19T09:29:44;19.42;;;15.32;;
54139;SDS011;40046;53.254;5.900;2023-06-19T09:32:17;15.50;;;12.70;;
54139;SDS011;40046;53.254;5.900;2023-06-19T09:34:45;18.38;;;13.95;;
54139;SDS011;40046;53.254;5.900;2023-06-19T09:37:11;15.88;;;12.55;;
54139;SDS011;40046;53.254;5.900;2023-06-19T09:39:37;19.55;;;15.15;;
54139;SDS011;40046;53.254;5.900;2023-06-19T09:42:05;18.40;;;15.30;;
54139;SDS011;40046;53.254;5.900;2023-06-19T09:44:32;17.83;;;14.13;;
54139;SDS011;40046;53.254;5.900;2023-06-19T09:47:01;17.48;;;15.40;;
54139;SDS011;40046;53.254;5.900;2023-06-19T09:49:29;17.90;;;16.00;;
54139;SDS011;40046;53.254;5.900;2023-06-19T09:51:57;17.60;;;15.75;;
54139;SDS011;40046;53.254;5.900;2023-06-19T09:54:23;19.90;;;15.45;;
54139;SDS011;40046;53.254;5.900;2023-06-19T09:56:51;19.75;;;17.02;;
54139;SDS011;40046;53.254;5.900;2023-06-19T09:59:21;19.25;;;16.40;;
54139;SDS011;40046;53.254;5.900;2023-06-19T10:01:47;19.05;;;16.73;;
54139;SDS011;40046;53.254;5.900;2023-06-19T10:04:14;20.40;;;16.90;;
54139;SDS011;40046;53.254;5.900;2023-06-19T10:06:42;21.23;;;17.20;;
54139;SDS011;40046;53.254;5.900;2023-06-19T10:09:09;19.35;;;16.75;;
54139;SDS011;40046;53.254;5.900;2023-06-19T10:11:45;20.75;;;17.95;;
54139;SDS011;40046;53.254;5.900;2023-06-19T10:14:12;18.67;;;15.63;;
54139;SDS011;40046;53.254;5.900;2023-06-19T10:16:40;18.08;;;16.08;;
54139;SDS011;40046;53.254;5.900;2023-06-19T10:19:16;22.05;;;16.02;;
54139;SDS011;40046;53.254;5.900;2023-06-19T10:21:47;21.23;;;16.27;;
54139;SDS011;40046;53.254;5.900;2023-06-19T10:24:17;23.27;;;15.30;;
54139;SDS011;40046;53.254;5.900;2023-06-19T10:26:58;20.70;;;15.73;;
54139;SDS011;40046;53.254;5.900;2023-06-19T10:29:25;16.65;;;14.38;;
54139;SDS011;40046;53.254;5.900;2023-06-19T10:31:52;20.77;;;15.73;;
54139;SDS011;40046;53.254;5.900;2023-06-19T10:34:18;17.02;;;14.32;;
54139;SDS011;40046;53.254;5.900;2023-06-19T10:36:44;20.02;;;15.98;;
54139;SDS011;40046;53.254;5.900;2023-06-19T10:39:11;19.90;;;17.00;;
54139;SDS011;40046;53.254;5.900;2023-06-19T10:41:39;17.38;;;15.60;;
54139;SDS011;40046;53.254;5.900;2023-06-19T10:44:06;17.73;;;15.82;;
54139;SDS011;40046;53.254;5.900;2023-06-19T10:46:39;16.05;;;14.15;;
54139;SDS011;40046;53.254;5.900;2023-06-19T10:49:06;19.17;;;15.18;;
54139;SDS011;40046;53.254;5.900;2023-06-19T10:51:39;18.67;;;16.67;;
54139;SDS011;40046;53.254;5.900;2023-06-19T10:54:07;19.40;;;15.43;;
54139;SDS011;40046;53.254;5.900;2023-06-19T10:56:33;19.08;;;17.08;;
54139;SDS011;40046;53.254;5.900;2023-06-19T10:59:03;19.15;;;17.23;;
54139;SDS011;40046;53.254;5.900;2023-06-19T11:01:40;21.02;;;18.83;;
54139;SDS011;40046;53.254;5.900;2023-06-19T11:04:07;22.98;;;19.52;;
54139;SDS011;40046;53.254;5.900;2023-06-19T11:06:33;21.95;;;19.65;;
54139;SDS011;40046;53.254;5.900;2023-06-19T11:09:00;20.48;;;18.05;;
54139;SDS011;40046;53.254;5.900;2023-06-19T11:11:41;21.77;;;19.05;;
54139;SDS011;40046;53.254;5.900;2023-06-19T11:14:08;26.33;;;19.95;;
54139;SDS011;40046;53.254;5.900;2023-06-19T11:16:35;23.42;;;19.65;;
54139;SDS011;40046;53.254;5.900;2023-06-19T11:19:03;19.90;;;17.52;;
54139;SDS011;40046;53.254;5.900;2023-06-19T11:21:30;21.02;;;18.88;;
54139;SDS011;40046;53.254;5.900;2023-06-19T11:23:58;21.85;;;19.55;;
54139;SDS011;40046;53.254;5.900;2023-06-19T11:26:25;21.40;;;19.40;;
54139;SDS011;40046;53.254;5.900;2023-06-19T11:28:51;19.42;;;17.45;;
54139;SDS011;40046;53.254;5.900;2023-06-19T11:31:18;18.60;;;15.52;;
54139;SDS011;40046;53.254;5.900;2023-06-19T11:36:17;20.20;;;15.35;;
54139;SDS011;40046;53.254;5.900;2023-06-19T11:38:43;16.35;;;14.77;;
54139;SDS011;40046;53.254;5.900;2023-06-19T11:41:24;18.70;;;13.93;;
54139;SDS011;40046;53.254;5.900;2023-06-19T11:43:50;15.40;;;13.80;;
54139;SDS011;40046;53.254;5.900;2023-06-19T11:46:16;15.65;;;13.80;;
54139;SDS011;40046;53.254;5.900;2023-06-19T11:48:44;16.33;;;12.73;;
54139;SDS011;40046;53.254;5.900;2023-06-19T11:51:10;16.02;;;13.85;;
54139;SDS011;40046;53.254;5.900;2023-06-19T11:53:37;15.13;;;13.23;;
54139;SDS011;40046;53.254;5.900;2023-06-19T11:56:03;17.30;;;13.88;;
54139;SDS011;40046;53.254;5.900;2023-06-19T11:58:29;25.88;;;11.98;;
54139;SDS011;40046;53.254;5.900;2023-06-19T12:00:55;15.05;;;11.68;;
54139;SDS011;40046;53.254;5.900;2023-06-19T12:03:21;13.23;;;10.23;;
54139;SDS011;40046;53.254;5.900;2023-06-19T12:05:48;16.85;;;10.23;;
54139;SDS011;40046;53.254;5.900;2023-06-19T12:08:14;9.73;;;8.63;;
54139;SDS011;40046;53.254;5.900;2023-06-19T12:10:41;12.95;;;9.40;;
54139;SDS011;40046;53.254;5.900;2023-06-19T12:13:07;10.95;;;8.95;;
54139;SDS011;40046;53.254;5.900;2023-06-19T12:15:34;9.23;;;7.78;;
54139;SDS011;40046;53.254;5.900;2023-06-19T12:18:00;9.23;;;8.27;;
54139;SDS011;40046;53.254;5.900;2023-06-19T12:20:26;8.00;;;7.20;;
54139;SDS011;40046;53.254;5.900;2023-06-19T12:22:52;10.95;;;9.25;;
54139;SDS011;40046;53.254;5.900;2023-06-19T12:25:18;13.95;;;9.07;;
54139;SDS011;40046;53.254;5.900;2023-06-19T12:27:45;10.45;;;7.38;;
54139;SDS011;40046;53.254;5.900;2023-06-19T12:30:11;10.45;;;7.38;;
54139;SDS011;40046;53.254;5.900;2023-06-19T12:32:37;9.55;;;7.38;;
54139;SDS011;40046;53.254;5.900;2023-06-19T12:35:03;9.10;;;7.38;;
54139;SDS011;40046;53.254;5.900;2023-06-19T12:37:31;10.27;;;7.80;;
54139;SDS011;40046;53.254;5.900;2023-06-19T12:39:57;9.45;;;7.20;;
54139;SDS011;40046;53.254;5.900;2023-06-19T12:42:23;7.68;;;6.88;;
54139;SDS011;40046;53.254;5.900;2023-06-19T12:44:50;9.52;;;8.32;;
54139;SDS011;40046;53.254;5.900;2023-06-19T12:47:16;7.90;;;7.10;;
54139;SDS011;40046;53.254;5.900;2023-06-19T12:49:43;9.43;;;7.38;;
54139;SDS011;40046;53.254;5.900;2023-06-19T12:52:10;10.50;;;6.63;;
54139;SDS011;40046;53.254;5.900;2023-06-19T12:54:37;7.88;;;6.15;;
54139;SDS011;40046;53.254;5.900;2023-06-19T12:57:03;7.45;;;6.68;;
54139;SDS011;40046;53.254;5.900;2023-06-19T12:59:29;7.43;;;6.35;;
54139;SDS011;40046;53.254;5.900;2023-06-19T13:01:57;11.52;;;7.50;;
54139;SDS011;40046;53.254;5.900;2023-06-19T13:04:24;10.05;;;7.82;;
54139;SDS011;40046;53.254;5.900;2023-06-19T13:06:50;10.23;;;6.35;;
54139;SDS011;40046;53.254;5.900;2023-06-19T13:09:16;12.43;;;9.15;;
54139;SDS011;40046;53.254;5.900;2023-06-19T13:11:42;12.00;;;8.68;;
54139;SDS011;40046;53.254;5.900;2023-06-19T13:14:09;10.77;;;8.02;;
54139;SDS011;40046;53.254;5.900;2023-06-19T13:16:35;12.43;;;8.95;;
54139;SDS011;40046;53.254;5.900;2023-06-19T13:19:01;13.07;;;8.88;;
54139;SDS011;40046;53.254;5.900;2023-06-19T13:21:28;14.38;;;8.55;;
54139;SDS011;40046;53.254;5.900;2023-06-19T13:23:54;10.60;;;7.57;;
54139;SDS011;40046;53.254;5.900;2023-06-19T13:26:20;10.63;;;7.75;;
54139;SDS011;40046;53.254;5.900;2023-06-19T13:28:46;12.20;;;7.78;;
54139;SDS011;40046;53.254;5.900;2023-06-19T13:31:12;9.18;;;7.57;;
54139;SDS011;40046;53.254;5.900;2023-06-19T13:33:39;11.88;;;8.38;;
54139;SDS011;40046;53.254;5.900;2023-06-19T13:36:05;9.70;;;7.82;;
54139;SDS011;40046;53.254;5.900;2023-06-19T13:38:31;14.20;;;6.80;;
54139;SDS011;40046;53.254;5.900;2023-06-19T13:40:57;8.05;;;5.63;;
54139;SDS011;40046;53.254;5.900;2023-06-19T13:43:23;8.55;;;6.10;;
54139;SDS011;40046;53.254;5.900;2023-06-19T13:45:50;15.57;;;6.93;;
54139;SDS011;40046;53.254;5.900;2023-06-19T13:48:16;7.00;;;5.15;;
54139;SDS011;40046;53.254;5.900;2023-06-19T13:50:42;10.38;;;6.70;;
54139;SDS011;40046;53.254;5.900;2023-06-19T13:53:08;11.75;;;6.57;;
54139;SDS011;40046;53.254;5.900;2023-06-19T13:55:34;8.65;;;6.13;;
54139;SDS011;40046;53.254;5.900;2023-06-19T13:58:01;8.75;;;5.30;;
54139;SDS011;40046;53.254;5.900;2023-06-19T14:00:27;13.27;;;5.20;;
54139;SDS011;40046;53.254;5.900;2023-06-19T14:02:53;7.10;;;5.20;;
54139;SDS011;40046;53.254;5.900;2023-06-19T14:05:19;8.40;;;6.00;;
54139;SDS011;40046;53.254;5.900;2023-06-19T14:07:46;8.48;;;5.95;;
54139;SDS011;40046;53.254;5.900;2023-06-19T14:10:12;9.90;;;6.30;;
54139;SDS011;40046;53.254;5.900;2023-06-19T14:12:38;8.07;;;6.47;;
54139;SDS011;40046;53.254;5.900;2023-06-19T14:15:05;7.78;;;5.53;;
54139;SDS011;40046;53.254;5.900;2023-06-19T14:17:32;6.45;;;5.40;;
54139;SDS011;40046;53.254;5.900;2023-06-19T14:19:58;6.93;;;5.32;;
54139;SDS011;40046;53.254;5.900;2023-06-19T14:22:24;7.65;;;5.68;;
54139;SDS011;40046;53.254;5.900;2023-06-19T14:24:50;12.68;;;5.72;;
54139;SDS011;40046;53.254;5.900;2023-06-19T14:27:23;8.52;;;5.70;;
54139;SDS011;40046;53.254;5.900;2023-06-19T14:29:49;8.93;;;6.15;;
54139;SDS011;40046;53.254;5.900;2023-06-19T14:32:16;7.88;;;6.28;;
54139;SDS011;40046;53.254;5.900;2023-06-19T14:34:42;9.73;;;5.90;;
54139;SDS011;40046;53.254;5.900;2023-06-19T14:37:08;7.93;;;5.35;;
54139;SDS011;40046;53.254;5.900;2023-06-19T14:39:34;6.47;;;4.88;;
54139;SDS011;40046;53.254;5.900;2023-06-19T14:42:00;6.57;;;5.85;;